Time;durP1;ratioP1;P1;durP2;ratioP2;P2;SDS_P1;SDS_P2;PMS_P1;PMS_P2;Temp;Humidity;BMP_temperature;BMP_pressure;BME280_temperature;BME280_humidity;BME280_pressure;Samples;Min_cycle;Max_cycle;Signal;HPM_P1;HPM_P2
2022/07/27 00:01:30;;;;;;;;;6.00;6.00;;;;;17.94;61.14;101048.09;5017232;28;45538;-70
2022/07/27 00:03:55;;;;;;;;;4.50;4.50;;;;;17.93;61.24;101038.38;5017108;28;45451;-69
2022/07/27 00:06:20;;;;;;;;;4.75;4.75;;;;;17.90;61.94;101035.94;5017230;28;45417;-68
2022/07/27 00:08:46;;;;;;;;;4.25;4.25;;;;;17.93;61.35;101040.22;5017562;28;45212;-69
2022/07/27 00:11:12;;;;;;;;;7.00;7.00;;;;;18.00;61.19;101038.00;5017364;28;46483;-70
2022/07/27 00:13:37;;;;;;;;;4.75;4.75;;;;;18.00;61.44;101030.00;5016903;28;45723;-70
2022/07/27 00:16:03;;;;;;;;;8.00;8.00;;;;;17.98;61.82;101030.13;5017285;28;45359;-69
2022/07/27 00:18:28;;;;;;;;;6.00;5.25;;;;;17.99;61.65;101030.97;5015904;28;45490;-71
2022/07/27 00:20:54;;;;;;;;;5.75;5.75;;;;;18.00;61.49;101035.34;5015973;28;45615;-69
2022/07/27 00:23:19;;;;;;;;;6.00;6.00;;;;;18.03;61.93;101032.53;5014358;28;45312;-68
2022/07/27 00:25:45;;;;;;;;;6.00;6.00;;;;;18.04;61.92;101031.59;5016044;28;45411;-69
2022/07/27 00:28:10;;;;;;;;;6.00;6.00;;;;;18.05;61.81;101028.81;5016387;28;45385;-68
2022/07/27 00:30:35;;;;;;;;;5.00;5.00;;;;;18.04;61.91;101027.09;5015660;28;45333;-70
2022/07/27 00:33:01;;;;;;;;;5.00;5.00;;;;;18.08;62.08;101030.44;5014193;28;45769;-69
2022/07/27 00:35:26;;;;;;;;;5.00;5.00;;;;;18.08;62.14;101025.09;5014089;28;45417;-67
2022/07/27 00:37:51;;;;;;;;;7.00;7.00;;;;;18.10;62.03;101033.84;5015850;28;45600;-70
2022/07/27 00:40:17;;;;;;;;;6.00;6.00;;;;;18.06;62.17;101033.19;5015349;28;46829;-69
2022/07/27 00:42:42;;;;;;;;;5.00;5.00;;;;;18.11;62.40;101030.22;5015823;28;45396;-70
2022/07/27 00:45:08;;;;;;;;;6.00;6.00;;;;;18.09;62.21;101034.81;5015604;28;45321;-69
2022/07/27 00:47:34;;;;;;;;;5.00;5.00;;;;;18.02;62.40;101029.00;5015845;28;45471;-69
2022/07/27 00:49:59;;;;;;;;;7.25;7.25;;;;;17.99;62.46;101029.19;5015489;28;45820;-70
2022/07/27 00:52:27;;;;;;;;;5.75;5.75;;;;;17.94;63.27;101039.25;5015242;28;45407;-69
2022/07/27 00:54:53;;;;;;;;;5.50;5.50;;;;;17.85;63.00;101030.03;5015286;28;45324;-68
2022/07/27 00:57:19;;;;;;;;;5.00;5.00;;;;;17.81;63.02;101029.41;5015182;28;45502;-68
2022/07/27 00:59:44;;;;;;;;;6.25;6.25;;;;;17.80;63.14;101022.38;5015345;28;46452;-70
2022/07/27 01:02:09;;;;;;;;;7.00;7.00;;;;;17.83;63.36;101023.13;5015222;28;45361;-69
2022/07/27 01:04:35;;;;;;;;;6.50;6.50;;;;;17.79;63.84;101022.47;5015179;28;45856;-70
2022/07/27 01:07:03;;;;;;;;;5.25;5.25;;;;;17.78;63.63;101020.75;5015123;28;45336;-70
2022/07/27 01:12:18;;;;;;;;;3.75;3.75;;;;;17.74;63.84;101019.25;5014861;28;45237;-69
2022/07/27 01:14:43;;;;;;;;;6.00;6.00;;;;;17.71;64.00;101017.63;5014878;28;45460;-70
2022/07/27 01:17:09;;;;;;;;;5.40;5.40;;;;;17.66;64.33;101017.91;4974802;28;1121976;-69
2022/07/27 01:19:35;;;;;;;;;5.00;5.00;;;;;17.66;64.24;101014.41;5015780;28;46304;-68
2022/07/27 01:22:01;;;;;;;;;4.75;4.75;;;;;17.61;64.28;101005.88;5015876;28;45340;-69
2022/07/27 01:24:27;;;;;;;;;5.50;5.50;;;;;17.61;64.48;101008.53;5015714;28;45279;-70
2022/07/27 01:26:52;;;;;;;;;5.50;5.50;;;;;17.58;64.41;101014.88;5015896;28;45301;-70
2022/07/27 01:29:17;;;;;;;;;6.25;6.25;;;;;17.57;64.83;101001.69;5015013;28;46669;-69
2022/07/27 01:31:43;;;;;;;;;6.75;6.75;;;;;17.53;64.89;100995.72;5016067;28;45329;-71
2022/07/27 01:34:08;;;;;;;;;6.00;6.00;;;;;17.53;64.88;101001.03;5015972;28;45299;-70
2022/07/27 01:36:34;;;;;;;;;7.00;7.00;;;;;17.54;64.75;100992.09;5016092;28;45212;-71
2022/07/27 01:38:59;;;;;;;;;7.00;7.00;;;;;17.55;64.97;100992.97;5014336;28;47186;-70
2022/07/27 01:41:24;;;;;;;;;5.25;5.25;;;;;17.50;65.43;100990.59;5015744;28;45254;-71
2022/07/27 01:43:50;;;;;;;;;5.00;5.00;;;;;17.51;65.08;100995.81;5015785;28;45244;-70
2022/07/27 01:46:15;;;;;;;;;6.75;6.75;;;;;17.52;65.18;100991.34;5016192;28;45261;-70
2022/07/27 01:48:41;;;;;;;;;6.00;6.00;;;;;17.51;65.38;100990.50;5015571;28;45335;-70
2022/07/27 01:51:06;;;;;;;;;6.00;6.00;;;;;17.45;65.15;100990.03;5015502;28;45265;-70
2022/07/27 01:53:32;;;;;;;;;7.00;7.00;;;;;17.44;65.34;100993.63;5015746;28;45519;-69
2022/07/27 01:55:57;;;;;;;;;6.50;6.50;;;;;17.39;65.46;100991.25;5015845;28;45439;-69
2022/07/27 01:58:22;;;;;;;;;5.50;5.50;;;;;17.37;65.63;100990.47;5015419;28;45588;-69
2022/07/27 02:00:48;;;;;;;;;4.25;4.25;;;;;17.33;65.38;100989.84;5016114;28;45392;-68
2022/07/27 02:03:14;;;;;;;;;6.00;6.00;;;;;17.32;65.80;101004.09;5015752;28;45324;-69
2022/07/27 02:05:39;;;;;;;;;5.25;5.25;;;;;17.29;65.87;101000.75;5015920;28;45373;-69
2022/07/27 02:08:06;;;;;;;;;5.00;5.00;;;;;17.23;65.96;101002.00;5015394;28;46984;-71
2022/07/27 02:10:32;;;;;;;;;6.75;6.75;;;;;17.22;66.26;100997.63;5015730;28;45434;-71
2022/07/27 02:12:57;;;;;;;;;5.25;5.25;;;;;17.20;65.93;100996.88;5015726;28;45422;-71
2022/07/27 02:15:25;;;;;;;;;6.50;6.50;;;;;17.17;66.17;100987.25;5016445;28;45442;-72
2022/07/27 02:17:52;;;;;;;;;6.00;6.00;;;;;17.16;66.40;100988.22;5015367;28;46280;-72
2022/07/27 02:20:19;;;;;;;;;5.75;5.75;;;;;17.14;66.34;100991.94;5016113;28;45335;-70
2022/07/27 02:22:46;;;;;;;;;4.50;4.50;;;;;17.10;66.34;100993.91;5015722;28;45398;-70
2022/07/27 02:25:13;;;;;;;;;7.00;7.00;;;;;17.10;66.66;100995.72;5013824;28;45564;-70
2022/07/27 02:27:42;;;;;;;;;5.25;5.25;;;;;17.08;66.60;100991.34;5013323;28;48798;-70
2022/07/27 02:30:10;;;;;;;;;6.50;6.50;;;;;17.08;66.14;100996.69;5014502;28;45304;-69
2022/07/27 02:32:35;;;;;;;;;7.50;7.50;;;;;17.05;66.83;100999.53;5014715;28;45423;-69
2022/07/27 02:35:01;;;;;;;;;12.25;11.50;;;;;17.02;67.13;100997.06;5014945;28;45534;-68
2022/07/27 02:37:26;;;;;;;;;6.75;6.75;;;;;17.02;67.07;101001.50;5014696;28;45789;-70
2022/07/27 02:39:51;;;;;;;;;6.75;6.75;;;;;16.96;67.15;100999.19;5014735;28;45412;-69
2022/07/27 02:42:18;;;;;;;;;9.00;7.00;;;;;16.91;67.34;101007.41;5013984;28;45305;-70
2022/07/27 02:44:43;;;;;;;;;7.75;7.75;;;;;16.88;67.41;101008.47;5015210;28;45513;-71
2022/07/27 02:47:09;;;;;;;;;7.00;7.00;;;;;16.84;67.43;100996.31;5014590;28;46536;-70
2022/07/27 02:49:34;;;;;;;;;9.25;9.00;;;;;16.78;67.36;100992.22;5014582;28;45250;-70
2022/07/27 02:52:00;;;;;;;;;7.00;7.00;;;;;16.79;67.57;100990.44;5013497;28;45245;-69
2022/07/27 02:54:25;;;;;;;;;8.00;8.00;;;;;16.75;68.25;100987.09;5014915;28;45471;-70
2022/07/27 02:56:52;;;;;;;;;8.75;8.75;;;;;16.72;67.86;100992.56;5014788;28;46309;-70
2022/07/27 02:59:18;;;;;;;;;6.50;6.50;;;;;16.70;67.92;100989.16;5014709;28;45335;-70
2022/07/27 03:01:45;;;;;;;;;7.00;7.00;;;;;16.68;67.82;100991.06;5014418;28;45367;-70
2022/07/27 03:04:11;;;;;;;;;7.00;7.00;;;;;16.64;67.96;100992.19;5014793;28;45513;-69
2022/07/27 03:06:36;;;;;;;;;6.00;6.00;;;;;16.63;67.82;100998.44;5014452;28;46515;-70
2022/07/27 03:09:03;;;;;;;;;6.00;6.00;;;;;16.61;68.36;100989.72;5014502;28;45505;-70
2022/07/27 03:11:28;;;;;;;;;6.75;6.75;;;;;16.57;67.83;100978.44;5014712;28;45300;-70
2022/07/27 03:13:54;;;;;;;;;5.25;5.25;;;;;16.53;68.15;100979.56;5014619;28;45667;-70
2022/07/27 03:16:19;;;;;;;;;7.00;7.00;;;;;16.54;68.53;100988.38;5014406;28;46180;-69
2022/07/27 03:18:44;;;;;;;;;8.50;8.50;;;;;16.47;68.52;100977.25;5014279;28;45335;-70
2022/07/27 03:21:10;;;;;;;;;6.75;6.75;;;;;16.43;68.65;100979.22;5014495;28;45201;-69
2022/07/27 03:23:35;;;;;;;;;7.00;7.00;;;;;16.43;68.54;100981.00;5014490;28;45256;-70
2022/07/27 03:26:00;;;;;;;;;7.75;7.75;;;;;16.41;68.58;100983.78;5014053;28;46225;-69
2022/07/27 03:28:26;;;;;;;;;6.00;6.00;;;;;16.38;68.26;100986.59;5014182;28;45398;-69
2022/07/27 03:30:51;;;;;;;;;6.75;6.75;;;;;16.31;68.65;100977.28;5014601;28;45422;-69
2022/07/27 03:33:16;;;;;;;;;5.50;5.50;;;;;16.34;68.51;100980.59;5014419;28;45240;-68
2022/07/27 03:35:42;;;;;;;;;7.00;6.00;;;;;16.26;68.91;100979.34;5014157;28;46231;-70
2022/07/27 03:38:07;;;;;;;;;7.00;7.00;;;;;16.27;68.67;100987.22;5014177;28;45346;-72
2022/07/27 03:40:32;;;;;;;;;7.50;7.50;;;;;16.25;68.90;100986.44;5014175;28;45328;-70
2022/07/27 03:42:58;;;;;;;;;6.00;6.00;;;;;16.24;69.28;100986.56;5014395;28;45530;-70
2022/07/27 03:45:24;;;;;;;;;6.00;6.00;;;;;16.16;69.20;100984.34;5013902;28;46304;-70
2022/07/27 03:47:49;;;;;;;;;5.25;5.25;;;;;16.08;69.94;100978.59;5014334;28;45358;-70
2022/07/27 03:50:15;;;;;;;;;5.00;5.00;;;;;16.04;69.06;100975.28;5014323;28;45302;-71
2022/07/27 03:52:40;;;;;;;;;6.25;6.25;;;;;16.02;69.63;100978.03;5016364;28;45351;-69
2022/07/27 03:55:06;;;;;;;;;7.00;6.50;;;;;16.03;69.41;100986.84;5015892;28;48104;-70
2022/07/27 03:57:31;;;;;;;;;5.75;5.75;;;;;15.98;69.53;100975.66;5017427;28;45357;-70
2022/07/27 03:59:57;;;;;;;;;5.00;5.00;;;;;15.95;70.29;100978.47;5017557;28;45384;-72
2022/07/27 04:02:22;;;;;;;;;6.00;6.00;;;;;15.91;69.46;100978.66;5017882;28;45571;-70
2022/07/27 04:04:47;;;;;;;;;6.25;6.25;;;;;15.86;69.61;100971.84;5017361;28;46193;-71
2022/07/27 04:07:13;;;;;;;;;5.50;5.50;;;;;15.87;69.64;100981.50;5016306;28;45337;-70
2022/07/27 04:09:38;;;;;;;;;6.25;6.25;;;;;15.88;70.15;100981.44;5016216;28;48159;-70
2022/07/27 04:12:03;;;;;;;;;4.75;4.75;;;;;15.89;69.50;100984.97;5017623;28;45356;-70
2022/07/27 04:14:29;;;;;;;;;6.00;6.00;;;;;15.89;69.68;100984.97;5016931;28;45315;-70
2022/07/27 04:16:54;;;;;;;;;6.25;6.25;;;;;15.84;70.30;100974.56;5017194;28;45455;-70
2022/07/27 04:19:20;;;;;;;;;7.25;7.25;;;;;15.85;69.79;100981.56;5017628;28;45750;-70
2022/07/27 04:21:45;;;;;;;;;4.50;4.50;;;;;15.85;69.51;100983.38;5017154;28;45147;-69
2022/07/27 04:24:11;;;;;;;;;6.75;6.75;;;;;15.81;69.88;100982.69;5016824;28;45325;-71
2022/07/27 04:26:36;;;;;;;;;7.00;7.00;;;;;15.67;69.95;100956.09;5016945;28;45225;-70
2022/07/27 04:29:02;;;;;;;;;5.25;5.25;;;;;15.80;69.30;100982.78;5016970;28;45381;-71
2022/07/27 04:31:27;;;;;;;;;4.00;4.00;;;;;15.77;69.32;100979.38;5017025;28;45590;-70
2022/07/27 04:33:53;;;;;;;;;4.75;4.75;;;;;15.75;69.75;100983.03;5016875;28;46450;-70
2022/07/27 04:36:18;;;;;;;;;5.00;5.00;;;;;15.73;69.54;100982.25;5016650;28;45469;-70
2022/07/27 04:38:43;;;;;;;;;5.75;5.75;;;;;15.70;69.25;100979.78;5016732;28;45490;-70
2022/07/27 04:41:09;;;;;;;;;4.50;4.50;;;;;15.69;69.35;100984.25;5016933;28;45292;-70
2022/07/27 04:43:34;;;;;;;;;5.00;5.00;;;;;15.67;69.46;100988.78;5016404;28;46290;-70
2022/07/27 04:46:03;;;;;;;;;5.25;5.25;;;;;15.64;69.66;100991.59;5016556;28;45435;-71
2022/07/27 04:48:28;;;;;;;;;4.00;4.00;;;;;15.58;69.20;100984.81;5016748;28;45359;-70
2022/07/27 04:50:54;;;;;;;;;4.00;4.00;;;;;15.55;69.40;100987.66;5017051;28;45218;-71
2022/07/27 04:53:19;;;;;;;;;5.00;5.00;;;;;15.52;69.67;100979.88;5015065;28;47215;-70
2022/07/27 04:55:45;;;;;;;;;6.00;6.00;;;;;15.56;69.20;100986.72;5016354;28;45316;-70
2022/07/27 04:58:12;;;;;;;;;4.00;4.00;;;;;15.55;69.00;100985.00;5016558;28;45272;-70
2022/07/27 05:00:38;;;;;;;;;5.75;5.75;;;;;15.53;68.93;100975.44;5016343;28;45345;-71
2022/07/27 05:03:04;;;;;;;;;5.50;5.50;;;;;15.56;69.11;100975.25;5014937;28;45707;-69
2022/07/27 05:05:30;;;;;;;;;5.00;5.00;;;;;15.56;69.06;100989.34;5015816;28;45380;-71
2022/07/27 05:07:55;;;;;;;;;4.00;4.00;;;;;15.57;68.58;100993.72;5016734;28;45443;-70
2022/07/27 05:10:21;;;;;;;;;4.50;4.50;;;;;15.60;68.39;100982.09;5016573;28;45340;-70
2022/07/27 05:12:47;;;;;;;;;5.75;5.75;;;;;15.61;68.44;100987.31;5014831;28;46142;-70
2022/07/27 05:15:12;;;;;;;;;10.00;10.00;;;;;15.68;68.58;100989.63;5015974;28;45475;-70
2022/07/27 05:17:38;;;;;;;;;5.50;5.50;;;;;15.83;68.17;100991.41;5015966;28;45760;-71
2022/07/27 05:20:04;;;;;;;;;4.75;4.75;;;;;16.03;67.27;100989.50;5016378;28;45562;-69
2022/07/27 05:22:29;;;;;;;;;5.50;5.50;;;;;16.28;66.48;100982.78;5015768;28;46362;-70
2022/07/27 05:24:55;;;;;;;;;5.00;5.00;;;;;16.50;65.58;100990.38;5016263;28;45268;-70
2022/07/27 05:27:20;;;;;;;;;6.50;6.50;;;;;16.70;64.88;100998.94;5014826;28;45329;-72
2022/07/27 05:29:46;;;;;;;;;5.25;5.25;;;;;16.92;64.43;100982.56;5016311;28;45577;-71
2022/07/27 05:32:11;;;;;;;;;6.00;6.00;;;;;17.14;63.56;100997.25;5015928;28;46245;-70
2022/07/27 05:34:37;;;;;;;;;5.50;5.50;;;;;17.29;63.05;101001.63;5015616;28;45349;-70
2022/07/27 05:37:02;;;;;;;;;4.25;4.25;;;;;17.46;62.73;101000.53;5015722;28;45385;-70
2022/07/27 05:39:28;;;;;;;;;5.75;5.75;;;;;17.49;61.85;100988.88;5016369;28;45518;-70
2022/07/27 05:41:53;;;;;;;;;6.00;6.00;;;;;17.62;61.19;101003.09;5014251;28;48162;-70
2022/07/27 05:44:19;;;;;;;;;5.25;5.25;;;;;17.61;61.18;100985.44;5015653;28;45447;-71
2022/07/27 05:46:44;;;;;;;;;5.00;5.00;;;;;17.79;60.93;101003.84;5015961;28;45344;-70
2022/07/27 05:49:09;;;;;;;;;5.00;5.00;;;;;17.84;60.72;101001.72;5016193;28;45367;-74
2022/07/27 05:51:35;;;;;;;;;7.50;7.50;;;;;17.89;60.36;101012.94;5015638;28;45436;-74
2022/07/27 05:54:00;;;;;;;;;5.00;5.00;;;;;17.90;60.20;101016.47;5014083;28;45789;-73
2022/07/27 05:56:26;;;;;;;;;7.75;7.75;;;;;17.77;60.30;101006.59;5015971;28;45440;-73
2022/07/27 05:58:52;;;;;;;;;6.00;6.00;;;;;17.72;60.35;101007.84;5015705;28;45341;-72
2022/07/27 06:01:17;;;;;;;;;7.00;7.00;;;;;17.67;60.44;101016.13;5012982;28;45572;-70
2022/07/27 06:03:42;;;;;;;;;7.75;7.75;;;;;17.59;60.56;101019.25;5011714;28;45181;-70
2022/07/27 06:08:53;;;;;;;;;5.50;5.50;;;;;17.30;60.65;101016.63;5014771;28;45497;-69
2022/07/27 06:11:18;;;;;;;;;5.50;5.50;;;;;17.19;61.22;101011.94;5011692;28;45446;-70
2022/07/27 06:13:44;;;;;;;;;5.00;5.00;;;;;17.15;61.21;101015.75;5015063;28;45380;-72
2022/07/27 06:16:09;;;;;;;;;4.00;4.00;;;;;17.08;61.21;101017.94;5014886;28;45395;-71
2022/07/27 06:18:34;;;;;;;;;4.75;4.75;;;;;17.02;61.46;101012.13;5020740;28;45339;-70
2022/07/27 06:21:01;;;;;;;;;4.00;4.00;;;;;16.97;61.30;101012.41;5015556;28;46181;-71
2022/07/27 06:23:27;;;;;;;;;6.25;6.00;;;;;17.01;61.24;101021.91;5015584;28;45987;-73
2022/07/27 06:25:54;;;;;;;;;8.00;8.00;;;;;17.10;61.19;101017.00;5014517;28;45675;-69
2022/07/27 06:28:19;;;;;;;;;5.00;5.00;;;;;17.14;61.06;101021.16;5016155;28;45348;-71
2022/07/27 06:30:45;;;;;;;;;6.50;6.50;;;;;17.14;61.06;101031.81;5013586;28;45496;-74
2022/07/27 06:33:11;;;;;;;;;20.00;19.50;;;;;17.13;60.93;101027.44;5012053;28;45613;-71
2022/07/27 06:35:36;;;;;;;;;6.00;6.00;;;;;16.96;60.99;101002.69;5013463;28;45697;-71
2022/07/27 06:38:02;;;;;;;;;12.50;12.50;;;;;17.02;61.10;101017.44;5015020;28;45575;-66
2022/07/27 06:40:27;;;;;;;;;7.00;7.00;;;;;17.05;61.18;101028.75;5003890;28;45355;-74
2022/07/27 06:42:53;;;;;;;;;7.25;7.25;;;;;17.02;61.12;101020.97;5013918;28;45253;-66
2022/07/27 06:45:20;;;;;;;;;7.00;7.00;;;;;17.09;61.12;101026.75;5013511;28;45276;-66
2022/07/27 06:47:47;;;;;;;;;9.00;8.25;;;;;17.20;61.19;101026.09;5015352;28;45359;-65
2022/07/27 06:50:13;;;;;;;;;5.00;5.00;;;;;17.34;60.91;101026.13;5014901;28;45657;-65
2022/07/27 06:52:38;;;;;;;;;7.25;7.25;;;;;17.44;60.65;101030.84;5023594;28;45382;-71
2022/07/27 06:55:04;;;;;;;;;6.00;6.00;;;;;17.51;60.58;101037.50;5004521;28;45426;-65
2022/07/27 06:57:29;;;;;;;;;11.25;11.25;;;;;17.59;60.41;101037.03;4999492;28;45396;-67
2022/07/27 06:59:54;;;;;;;;;8.25;8.25;;;;;17.59;60.26;101034.38;5001756;28;45663;-69
2022/07/27 07:02:20;;;;;;;;;5.00;5.00;;;;;17.63;60.17;101039.41;5014014;28;45398;-73
2022/07/27 07:04:45;;;;;;;;;8.00;8.00;;;;;17.71;60.25;101038.94;5004537;28;45399;-68
2022/07/27 07:07:11;;;;;;;;;7.00;7.00;;;;;17.78;60.11;101044.69;5002746;28;45549;-69
2022/07/27 07:09:36;;;;;;;;;6.75;6.75;;;;;17.83;59.88;101039.94;5009703;28;45926;-69
2022/07/27 07:12:02;;;;;;;;;8.00;7.75;;;;;17.92;59.91;101042.00;5014075;28;45481;-70
2022/07/27 07:14:27;;;;;;;;;8.50;8.50;;;;;17.97;59.74;101041.72;5015426;28;45260;-80
2022/07/27 07:16:53;;;;;;;;;8.75;7.75;;;;;18.08;59.43;101051.72;5017030;28;45194;-76
2022/07/27 07:19:18;;;;;;;;;7.25;6.50;;;;;18.22;59.41;101054.34;5016007;28;46158;-74
2022/07/27 07:21:44;;;;;;;;;23.75;22.25;;;;;18.33;59.08;101055.44;5015257;28;45434;-80
2022/07/27 07:24:09;;;;;;;;;8.00;8.00;;;;;18.44;58.51;101057.38;5016474;28;45434;-79
2022/07/27 07:26:36;;;;;;;;;7.50;7.50;;;;;18.54;58.61;101046.03;5015214;28;45328;-76
2022/07/27 07:29:02;;;;;;;;;6.75;6.75;;;;;18.70;58.46;101050.34;5018493;28;46521;-76
2022/07/27 07:31:27;;;;;;;;;8.75;8.75;;;;;18.81;58.47;101045.13;5018498;28;45524;-74
2022/07/27 07:33:53;;;;;;;;;7.25;7.25;;;;;18.88;57.55;101053.59;5018225;28;45363;-73
2022/07/27 07:36:18;;;;;;;;;7.75;7.75;;;;;18.91;57.02;101044.50;5018328;28;45328;-77
2022/07/27 07:38:44;;;;;;;;;4.50;4.50;;;;;19.05;57.64;101054.28;5017940;28;46418;-69
2022/07/27 07:41:10;;;;;;;;;7.25;7.25;;;;;19.08;57.15;101057.56;5015978;28;45406;-70
2022/07/27 07:43:37;;;;;;;;;5.50;5.50;;;;;19.11;57.24;101059.19;5016012;28;45315;-68
2022/07/27 07:46:03;;;;;;;;;8.50;7.50;;;;;19.17;57.05;101061.41;5017773;28;45160;-71
2022/07/27 07:48:29;;;;;;;;;7.25;7.25;;;;;19.22;57.26;101045.13;5016575;28;47124;-74
2022/07/27 07:50:54;;;;;;;;;7.25;7.25;;;;;19.33;56.85;101055.03;5015850;28;45355;-72
2022/07/27 07:53:21;;;;;;;;;9.75;9.00;;;;;19.41;57.01;101058.88;5015991;28;45437;-73
2022/07/27 07:55:46;;;;;;;;;7.00;7.00;;;;;19.46;56.53;101053.19;5016125;28;45322;-69
2022/07/27 07:58:12;;;;;;;;;7.25;7.25;;;;;19.50;56.24;101054.69;5016967;28;46265;-71
2022/07/27 08:00:37;;;;;;;;;6.00;6.00;;;;;19.63;55.91;101062.69;5016914;28;45491;-71
2022/07/27 08:03:03;;;;;;;;;9.25;9.25;;;;;19.70;55.87;101052.44;5017568;28;45254;-71
2022/07/27 08:05:31;;;;;;;;;8.50;8.50;;;;;19.73;55.79;101046.00;5017607;28;45395;-71
2022/07/27 08:07:56;;;;;;;;;9.25;9.25;;;;;19.79;55.62;101049.09;5016785;28;46213;-72
2022/07/27 08:10:22;;;;;;;;;10.75;9.75;;;;;19.89;55.64;101051.94;5015507;28;45804;-75
2022/07/27 08:12:51;;;;;;;;;7.50;7.50;;;;;19.94;55.84;101052.50;5015536;28;45372;-72
2022/07/27 08:15:17;;;;;;;;;7.25;7.25;;;;;20.02;55.47;101051.97;5016867;28;45333;-72
2022/07/27 08:17:43;;;;;;;;;9.00;8.25;;;;;20.08;55.58;101034.63;5015070;28;47895;-72
2022/07/27 08:20:10;;;;;;;;;8.00;8.00;;;;;20.13;54.53;101037.81;5016760;28;45419;-73
2022/07/27 08:22:36;;;;;;;;;6.50;6.50;;;;;20.09;55.24;101047.88;5015489;28;45319;-72
2022/07/27 08:25:02;;;;;;;;;8.50;8.50;;;;;20.16;54.98;101039.41;5016798;28;45287;-70
2022/07/27 08:27:27;;;;;;;;;11.75;11.00;;;;;20.23;55.31;101044.19;5014673;28;48431;-73
2022/07/27 08:29:53;;;;;;;;;9.75;9.75;;;;;20.28;54.39;101036.69;5016424;28;45316;-73
2022/07/27 08:32:18;;;;;;;;;11.00;11.00;;;;;20.39;54.82;101037.72;5016430;28;45285;-72
2022/07/27 08:34:43;;;;;;;;;9.25;9.25;;;;;20.53;54.09;101048.22;5016917;28;45180;-71
2022/07/27 08:37:09;;;;;;;;;9.50;8.50;;;;;20.56;54.00;101028.41;5016252;28;45608;-72
2022/07/27 08:39:34;;;;;;;;;8.00;7.75;;;;;20.54;53.73;101025.88;5016645;28;45363;-71
2022/07/27 08:42:03;;;;;;;;;6.50;6.50;;;;;20.33;53.81;100990.91;5048762;28;45240;-72
2022/07/27 08:44:29;;;;;;;;;9.50;8.75;;;;;20.61;53.16;101039.59;5016759;28;45320;-70
2022/07/27 08:46:56;;;;;;;;;8.25;8.25;;;;;20.67;53.78;101032.97;5015968;28;46019;-69
2022/07/27 08:49:22;;;;;;;;;9.00;9.00;;;;;20.79;53.67;101039.22;5016036;28;45391;-72
2022/07/27 08:51:49;;;;;;;;;8.50;8.50;;;;;20.91;52.43;101037.41;5015033;28;45370;-71
2022/07/27 08:54:15;;;;;;;;;9.00;9.00;;;;;20.96;52.78;101032.56;5016354;28;45249;-71
2022/07/27 08:56:41;;;;;;;;;9.50;9.50;;;;;20.97;52.99;101036.94;5015768;28;46302;-72
2022/07/27 08:59:06;;;;;;;;;9.00;9.00;;;;;20.99;52.78;101041.22;5016373;28;45245;-68
2022/07/27 09:01:32;;;;;;;;;10.75;10.75;;;;;20.98;52.28;101036.84;5016483;28;45406;-75
2022/07/27 09:03:58;;;;;;;;;9.50;9.50;;;;;21.01;52.15;101030.38;5015355;28;45617;-71
2022/07/27 09:06:44;;;;;;;;;7.50;7.50;;;;;21.15;52.22;101043.53;5016203;28;46247;-74
2022/07/27 09:09:16;;;;;;;;;8.25;8.25;;;;;21.10;51.87;101023.50;5016312;28;45368;-72
2022/07/27 09:11:42;;;;;;;;;8.50;8.00;;;;;21.20;51.29;101039.66;4998529;28;45178;-71
2022/07/27 09:14:10;;;;;;;;;9.25;9.00;;;;;21.27;51.18;101041.75;5015267;28;45607;-70
2022/07/27 09:16:36;;;;;;;;;20.00;19.00;;;;;21.31;51.59;101029.00;5016262;28;47158;-72
2022/07/27 09:19:07;;;;;;;;;10.50;10.50;;;;;21.27;50.83;101030.22;5016024;28;45465;-72
2022/07/27 09:21:35;;;;;;;;;9.75;9.00;;;;;21.40;51.11;101030.94;5014572;28;45396;-72
2022/07/27 09:24:12;;;;;;;;;7.00;7.00;;;;;21.54;50.22;101037.00;5016116;28;45585;-73
2022/07/27 09:26:38;;;;;;;;;7.25;7.25;;;;;21.71;50.12;101036.53;5016124;28;46042;-73
2022/07/27 09:29:03;;;;;;;;;8.00;8.00;;;;;21.89;50.41;101028.00;5015847;28;45420;-73
2022/07/27 09:31:29;;;;;;;;;7.50;7.50;;;;;22.03;49.71;101029.56;5015954;28;45237;-73
2022/07/27 09:33:58;;;;;;;;;9.25;7.50;;;;;22.08;49.17;101032.72;5015848;28;45593;-73
2022/07/27 09:36:26;;;;;;;;;8.00;8.00;;;;;22.13;48.08;101030.50;5014091;28;47197;-72
2022/07/27 09:38:57;;;;;;;;;8.00;8.00;;;;;22.14;47.45;101048.28;5014395;28;45786;-73
2022/07/27 09:41:23;;;;;;;;;7.00;7.00;;;;;22.14;47.46;101034.88;5014446;28;45343;-74
2022/07/27 09:43:51;;;;;;;;;7.25;7.25;;;;;22.19;47.41;101039.84;5016154;28;45307;-76
2022/07/27 09:46:30;;;;;;;;;7.75;7.75;;;;;22.29;47.30;101040.81;5015553;28;45462;-74
2022/07/27 09:48:56;;;;;;;;;11.75;11.75;;;;;22.44;47.26;101029.78;5014745;28;45301;-73
2022/07/27 09:51:24;;;;;;;;;5.50;5.50;;;;;22.56;46.25;101028.78;5014813;28;45257;-73
2022/07/27 09:53:53;;;;;;;;;4.75;4.75;;;;;22.58;46.07;101029.50;5015689;28;45494;-74
2022/07/27 09:56:25;;;;;;;;;7.00;7.00;;;;;22.61;45.52;101033.75;5015109;28;45713;-72
2022/07/27 09:58:55;;;;;;;;;7.25;7.25;;;;;22.72;45.73;101030.16;5015508;28;45376;-71
2022/07/27 10:01:24;;;;;;;;;4.50;4.50;;;;;22.68;44.62;101028.72;5015464;28;45501;-73
2022/07/27 10:03:55;;;;;;;;;6.75;6.75;;;;;22.66;44.05;101030.69;5015451;28;45544;-74
2022/07/27 10:06:22;;;;;;;;;5.25;5.25;;;;;22.73;44.59;101015.78;5015110;28;46442;-73
2022/07/27 10:08:50;;;;;;;;;7.25;7.25;;;;;22.88;44.57;101025.19;5015125;28;45526;-71
2022/07/27 10:11:17;;;;;;;;;12.50;11.25;;;;;23.06;44.66;101021.91;5015010;28;45327;-73
2022/07/27 10:13:43;;;;;;;;;19.50;19.50;;;;;23.33;43.75;101026.75;5015116;28;45304;-70
2022/07/27 10:16:16;;;;;;;;;4.25;4.25;;;;;23.53;43.44;101023.28;5013700;28;47280;-72
2022/07/27 10:18:51;;;;;;;;;9.00;8.00;;;;;23.62;42.58;101025.16;5014830;28;45434;-72
2022/07/27 10:21:17;;;;;;;;;5.25;5.25;;;;;23.67;41.95;101025.59;5014941;28;45335;-72
2022/07/27 10:23:54;;;;;;;;;5.00;5.00;;;;;23.63;41.83;101018.81;5014063;28;45416;-70
2022/07/27 10:26:26;;;;;;;;;6.00;6.00;;;;;23.65;41.64;101022.19;5012657;28;45830;-73
2022/07/27 10:28:56;;;;;;;;;6.00;4.25;;;;;23.66;41.66;101017.66;5014575;28;45296;-74
2022/07/27 10:31:30;;;;;;;;;7.50;7.50;;;;;23.71;42.05;101027.03;5014711;28;45389;-73
2022/07/27 10:33:59;;;;;;;;;7.25;6.75;;;;;23.65;41.54;101022.19;5014698;28;45393;-72
2022/07/27 10:36:30;;;;;;;;;6.00;6.00;;;;;23.61;42.79;101018.94;5012965;28;47216;-73
2022/07/27 10:39:01;;;;;;;;;17.75;17.75;;;;;23.54;42.79;101015.09;5014803;28;45304;-72
2022/07/27 10:41:39;;;;;;;;;6.25;6.25;;;;;23.36;42.91;100996.13;5014459;28;45320;-73
2022/07/27 10:44:15;;;;;;;;;9.00;9.00;;;;;23.53;41.69;101017.94;5014799;28;45478;-75
2022/07/27 10:46:51;;;;;;;;;4.00;4.00;;;;;23.52;40.27;101021.59;5014792;28;46653;-74
2022/07/27 10:49:18;;;;;;;;;3.25;3.25;;;;;23.53;40.59;101020.59;5014684;28;45339;-73
2022/07/27 10:51:44;;;;;;;;;7.50;7.50;;;;;23.55;39.85;101011.41;5014389;28;45352;-73
2022/07/27 10:54:38;;;;;;;;;3.75;3.75;;;;;23.57;40.15;101008.63;5015004;28;45606;-72
2022/07/27 10:57:08;;;;;;;;;23.25;23.25;;;;;23.73;41.20;101003.56;5012750;28;47552;-76
2022/07/27 10:59:40;;;;;;;;;3.50;3.50;;;;;24.00;40.83;101004.78;5013046;28;45406;-73
2022/07/27 11:02:08;;;;;;;;;6.75;6.75;;;;;24.14;40.25;100992.78;5017246;28;45338;-74
2022/07/27 11:04:47;;;;;;;;;4.50;4.25;;;;;24.30;40.20;100996.75;5018289;28;45549;-73
2022/07/27 11:07:18;;;;;;;;;4.00;4.00;;;;;24.23;39.63;100991.06;5017837;28;46642;-71
2022/07/27 11:09:45;;;;;;;;;7.50;7.50;;;;;24.18;39.58;100987.94;5017864;28;45230;-73
2022/07/27 11:12:12;;;;;;;;;4.25;4.25;;;;;24.12;39.52;100978.63;5016612;28;45351;-73
2022/07/27 11:14:47;;;;;;;;;3.75;3.75;;;;;24.25;39.69;100986.41;5016430;28;45411;-72
2022/07/27 11:17:14;;;;;;;;;5.75;5.75;;;;;24.36;39.41;100982.72;5017642;28;45466;-74
2022/07/27 11:19:40;;;;;;;;;4.00;4.00;;;;;24.48;39.39;100978.06;5017463;28;45383;-72
2022/07/27 11:22:05;;;;;;;;;3.75;3.75;;;;;24.62;39.70;100966.84;5016531;28;45483;-74
2022/07/27 11:24:32;;;;;;;;;4.00;4.00;;;;;24.68;39.15;100964.56;5017911;28;45602;-69
2022/07/27 11:26:58;;;;;;;;;6.25;6.25;;;;;24.65;38.52;100974.63;5017619;28;46463;-72